createdAt,value
2018-11-03T00:00:14.255Z,5.70
2018-11-03T00:01:14.245Z,5.74
2018-11-03T00:02:14.234Z,5.71
2018-11-03T00:03:14.546Z,5.73
2018-11-03T00:04:14.227Z,5.71
2018-11-03T00:05:14.202Z,5.71
2018-11-03T00:06:14.191Z,5.70
2018-11-03T00:07:14.181Z,5.73
2018-11-03T00:08:14.171Z,5.73
2018-11-03T00:09:14.241Z,5.67
2018-11-03T00:10:14.157Z,5.52
2018-11-03T00:11:14.714Z,5.49
2018-11-03T00:12:14.138Z,5.46
2018-11-03T00:13:14.136Z,5.40
2018-11-03T00:14:14.723Z,5.41
2018-11-03T00:15:14.621Z,5.37
2018-11-03T00:16:14.092Z,5.40
2018-11-03T00:17:14.081Z,5.38
2018-11-03T00:18:14.070Z,5.43
2018-11-03T00:19:14.061Z,5.43
2018-11-03T00:20:14.051Z,5.48
2018-11-03T00:21:14.089Z,5.43
2018-11-03T00:22:14.313Z,5.43
2018-11-03T00:23:14.019Z,5.43
2018-11-03T00:24:14.020Z,5.45
2018-11-03T00:25:13.997Z,5.43
2018-11-03T00:26:14.721Z,5.28
2018-11-03T00:27:15.186Z,5.35
2018-11-03T00:28:13.969Z,5.31
2018-11-03T00:29:14.246Z,5.17
2018-11-03T00:30:14.713Z,5.20
2018-11-03T00:31:13.932Z,5.19
2018-11-03T00:32:13.922Z,5.13
2018-11-03T00:33:14.073Z,5.17
2018-11-03T00:34:13.905Z,5.10
2018-11-03T00:35:13.890Z,5.04
2018-11-03T00:36:14.162Z,5.13
2018-11-03T00:37:13.867Z,5.02
2018-11-03T00:38:14.679Z,4.91
2018-11-03T00:39:15.669Z,4.84
2018-11-03T00:40:13.989Z,4.89
2018-11-03T00:41:14.318Z,4.84
2018-11-03T00:42:13.852Z,4.91
2018-11-03T00:43:14.179Z,4.86
2018-11-03T00:44:13.798Z,4.94
2018-11-03T00:45:13.925Z,4.88
2018-11-03T00:46:13.771Z,4.92
2018-11-03T00:47:13.760Z,4.88
2018-11-03T00:48:13.750Z,4.86
2018-11-03T00:49:13.742Z,4.89
2018-11-03T00:50:14.051Z,4.83
2018-11-03T00:51:13.850Z,4.76
2018-11-03T00:52:13.713Z,4.80
2018-11-03T00:53:13.714Z,4.72
2018-11-03T00:54:13.689Z,4.77
2018-11-03T00:55:13.679Z,4.73
2018-11-03T00:56:13.678Z,4.77
2018-11-03T00:57:14.088Z,4.72
2018-11-03T00:58:13.646Z,4.72
2018-11-03T00:59:13.648Z,4.70
2018-11-03T01:00:13.630Z,4.67
2018-11-03T01:01:13.614Z,4.69
2018-11-03T01:02:13.609Z,4.70
2018-11-03T01:03:14.716Z,4.62
2018-11-03T01:04:13.867Z,4.62
2018-11-03T01:05:13.583Z,4.58
2018-11-03T01:06:13.568Z,4.64
2018-11-03T01:07:13.554Z,4.62
2018-11-03T01:08:13.591Z,4.65
2018-11-03T01:09:13.665Z,4.65
2018-11-03T01:10:13.529Z,4.65
2018-11-03T01:11:13.802Z,4.64
2018-11-03T01:12:13.510Z,4.62
2018-11-03T01:13:13.497Z,4.65
2018-11-03T01:14:13.490Z,4.61
2018-11-03T01:15:13.592Z,4.70
2018-11-03T01:16:13.459Z,4.65
2018-11-03T01:17:13.457Z,4.58
2018-11-03T01:18:13.744Z,4.64
2018-11-03T01:19:13.427Z,4.65
2018-11-03T01:20:13.416Z,4.54
2018-11-03T01:21:13.558Z,4.62
2018-11-03T01:22:13.406Z,4.61
2018-11-03T01:23:13.398Z,4.64
2018-11-03T01:24:13.376Z,4.64
2018-11-03T01:25:13.648Z,4.59
2018-11-03T01:26:13.354Z,4.58
2018-11-03T01:27:13.472Z,4.61
2018-11-03T01:28:13.336Z,4.61
2018-11-03T01:29:13.325Z,4.59
2018-11-03T01:30:13.322Z,4.52
2018-11-03T01:31:13.310Z,4.50
2018-11-03T01:32:13.626Z,4.42
2018-11-03T01:33:13.404Z,4.39
2018-11-03T01:34:13.272Z,4.29
2018-11-03T01:35:13.269Z,4.26
2018-11-03T01:36:13.258Z,4.29
2018-11-03T01:37:13.253Z,4.40
2018-11-03T01:38:13.231Z,4.32
2018-11-03T01:39:13.392Z,4.47
2018-11-03T01:40:13.221Z,4.44
2018-11-03T01:41:13.198Z,4.37
2018-11-03T01:42:13.198Z,4.46
2018-11-03T01:43:13.199Z,4.29
2018-11-03T01:44:13.201Z,4.25
2018-11-03T01:45:13.305Z,4.33
2018-11-03T01:46:13.242Z,4.25
2018-11-03T01:47:13.135Z,4.19
2018-11-03T01:48:13.147Z,4.21
2018-11-03T01:49:13.117Z,4.16
2018-11-03T01:50:13.105Z,4.15
2018-11-03T01:51:13.231Z,4.10
2018-11-03T01:52:13.085Z,4.12
2018-11-03T01:53:13.697Z,4.12
2018-11-03T01:54:13.064Z,4.08
2018-11-03T01:55:13.053Z,4.07
2018-11-03T01:56:13.045Z,3.90
2018-11-03T01:57:13.694Z,3.86
2018-11-03T01:58:13.028Z,3.85
2018-11-03T01:59:13.699Z,3.82
2018-11-03T02:00:13.005Z,3.86
2018-11-03T02:01:12.992Z,3.82
2018-11-03T02:02:12.995Z,3.83
2018-11-03T02:03:13.108Z,3.89
2018-11-03T02:04:13.692Z,3.78
2018-11-03T02:05:12.967Z,3.82
2018-11-03T02:06:12.950Z,3.85
2018-11-03T02:07:12.929Z,3.78
2018-11-03T02:08:12.927Z,3.83
2018-11-03T02:09:13.320Z,3.86
2018-11-03T02:10:12.898Z,3.83
2018-11-03T02:11:12.886Z,3.97
2018-11-03T02:12:12.881Z,3.97
2018-11-03T02:13:12.869Z,3.94
2018-11-03T02:14:12.861Z,3.86
2018-11-03T02:15:13.696Z,3.88
2018-11-03T02:16:13.126Z,3.88
2018-11-03T02:17:12.826Z,3.88
2018-11-03T02:18:12.825Z,3.86
2018-11-03T02:19:12.848Z,3.75
2018-11-03T02:20:12.802Z,3.82
2018-11-03T02:21:12.934Z,3.76
2018-11-03T02:22:12.775Z,3.75
2018-11-03T02:23:13.046Z,3.79
2018-11-03T02:24:12.756Z,3.76
2018-11-03T02:25:12.744Z,3.82
2018-11-03T02:26:12.733Z,3.86
2018-11-03T02:27:12.867Z,3.85
2018-11-03T02:28:12.715Z,3.86
2018-11-03T02:29:12.705Z,3.86
2018-11-03T02:30:12.707Z,3.86
2018-11-03T02:31:12.681Z,3.79
2018-11-03T02:32:12.670Z,3.78
2018-11-03T02:33:12.796Z,3.76
2018-11-03T02:34:12.651Z,3.82
2018-11-03T02:35:12.641Z,3.76
2018-11-03T02:36:13.037Z,3.75
2018-11-03T02:37:12.627Z,3.61
2018-11-03T02:38:12.621Z,3.61
2018-11-03T02:39:12.850Z,3.62
2018-11-03T02:40:12.587Z,3.62
2018-11-03T02:41:12.581Z,3.62
2018-11-03T02:42:12.571Z,3.64
2018-11-03T02:43:12.840Z,3.47
2018-11-03T02:44:12.552Z,3.57
2018-11-03T02:45:12.663Z,3.49
2018-11-03T02:46:12.541Z,3.44
2018-11-03T02:47:12.529Z,3.46
2018-11-03T02:48:12.553Z,3.53
2018-11-03T02:49:12.497Z,3.61
2018-11-03T02:50:12.768Z,3.54
2018-11-03T02:51:12.632Z,3.54
2018-11-03T02:52:12.470Z,3.57
2018-11-03T02:53:12.468Z,3.44
2018-11-03T02:54:12.446Z,3.52
2018-11-03T02:55:12.433Z,3.44
2018-11-03T02:56:12.425Z,3.44
2018-11-03T02:57:13.689Z,3.43
2018-11-03T02:58:12.451Z,3.44
2018-11-03T02:59:12.394Z,3.42
2018-11-03T03:01:27.160Z,3.57
2018-11-03T03:02:28.182Z,3.50
2018-11-03T03:03:27.393Z,3.40
2018-11-03T03:04:27.106Z,3.47
2018-11-03T03:05:27.103Z,3.50
2018-11-03T03:06:27.088Z,3.61
2018-11-03T03:07:27.172Z,3.44
2018-11-03T03:08:27.318Z,3.34
2018-11-03T03:09:27.387Z,3.33
2018-11-03T03:10:27.045Z,3.39
2018-11-03T03:11:27.032Z,3.25
2018-11-03T03:12:27.024Z,3.25
2018-11-03T03:13:27.753Z,3.31
2018-11-03T03:14:27.072Z,3.23
2018-11-03T03:15:26.990Z,3.30
2018-11-03T03:16:26.995Z,3.34
2018-11-03T03:17:26.969Z,3.28
2018-11-03T03:18:26.959Z,3.36
2018-11-03T03:19:26.952Z,3.40
2018-11-03T03:20:27.021Z,3.21
2018-11-03T03:21:27.228Z,3.25
2018-11-03T03:22:26.917Z,3.07
2018-11-03T03:23:26.909Z,3.07
2018-11-03T03:24:26.898Z,3.03
2018-11-03T03:25:26.886Z,2.98
2018-11-03T03:26:28.751Z,3.06
2018-11-03T03:27:27.713Z,3.02
2018-11-03T03:28:27.140Z,3.07
2018-11-03T03:29:26.880Z,3.07
2018-11-03T03:30:26.835Z,3.03
2018-11-03T03:31:26.825Z,2.98
2018-11-03T03:32:26.891Z,2.91
2018-11-03T03:33:26.803Z,2.92
2018-11-03T03:34:26.792Z,2.94
2018-11-03T03:35:27.067Z,2.94
2018-11-03T03:36:26.772Z,2.84
2018-11-03T03:37:26.759Z,2.94
2018-11-03T03:38:26.822Z,2.79
2018-11-03T03:39:26.739Z,2.77
2018-11-03T03:40:26.731Z,2.76
2018-11-03T03:41:26.717Z,2.69
2018-11-03T03:42:27.198Z,2.74
2018-11-03T03:43:26.758Z,2.77
2018-11-03T03:44:26.917Z,2.79
2018-11-03T03:45:26.677Z,2.84
2018-11-03T03:46:26.664Z,2.76
2018-11-03T03:47:26.653Z,2.82
2018-11-03T03:48:26.642Z,2.81
2018-11-03T03:49:26.635Z,2.91
2018-11-03T03:50:26.700Z,2.91
2018-11-03T03:51:26.614Z,2.94
2018-11-03T03:52:27.130Z,2.94
2018-11-03T03:53:26.590Z,2.85
2018-11-03T03:54:26.590Z,2.82
2018-11-03T03:55:26.570Z,2.76
2018-11-03T03:56:26.635Z,2.76
2018-11-03T03:57:26.550Z,2.74
2018-11-03T03:58:26.537Z,2.81
2018-11-03T03:59:26.550Z,2.77
2018-11-03T04:00:26.516Z,2.74
2018-11-03T04:01:26.787Z,2.79
2018-11-03T04:02:26.599Z,2.82
2018-11-03T04:03:26.483Z,2.77
2018-11-03T04:04:26.501Z,2.77
2018-11-03T04:05:26.463Z,2.76
2018-11-03T04:06:26.453Z,2.71
2018-11-03T04:07:26.444Z,2.44
2018-11-03T04:08:26.504Z,2.33
2018-11-03T04:09:26.426Z,2.28
2018-11-03T04:10:26.410Z,2.17
2018-11-03T04:11:26.399Z,1.99
2018-11-03T04:12:26.392Z,2.01
2018-11-03T04:13:26.666Z,2.08
2018-11-03T04:14:26.447Z,2.16
2018-11-03T04:15:26.358Z,2.02
2018-11-03T04:16:26.349Z,2.08
2018-11-03T04:17:26.339Z,2.10
2018-11-03T04:18:26.325Z,2.20
2018-11-03T04:19:26.315Z,2.20
2018-11-03T04:20:26.404Z,2.37
2018-11-03T04:21:26.296Z,2.38
2018-11-03T04:22:26.293Z,2.48
2018-11-03T04:23:26.273Z,2.48
2018-11-03T04:24:26.263Z,2.51
2018-11-03T04:25:26.257Z,2.53
2018-11-03T04:26:26.323Z,2.59
2018-11-03T04:27:26.231Z,2.63
2018-11-03T04:28:26.222Z,2.58
2018-11-03T04:29:26.210Z,2.70
2018-11-03T04:30:26.211Z,2.64
2018-11-03T04:31:26.500Z,2.53
2018-11-03T04:32:26.255Z,2.51
2018-11-03T04:33:26.168Z,2.52
2018-11-03T04:34:26.162Z,2.51
2018-11-03T04:35:26.145Z,2.58
2018-11-03T04:36:26.140Z,2.53
2018-11-03T04:37:26.126Z,2.56
2018-11-03T04:38:26.768Z,2.69
2018-11-03T04:39:26.105Z,2.59
2018-11-03T04:40:26.095Z,2.66
2018-11-03T04:41:26.089Z,2.52
2018-11-03T04:42:26.072Z,2.52
2018-11-03T04:43:26.062Z,2.56
2018-11-03T04:44:26.129Z,2.53
2018-11-03T04:45:26.072Z,2.52
2018-11-03T04:46:26.030Z,2.51
2018-11-03T04:47:26.020Z,2.55
2018-11-03T04:48:26.008Z,2.49
2018-11-03T04:49:25.997Z,2.58
2018-11-03T04:50:26.058Z,2.58
2018-11-03T04:51:26.261Z,2.55
2018-11-03T04:52:25.966Z,2.59
2018-11-03T04:53:25.958Z,2.55
2018-11-03T04:54:25.945Z,2.56
2018-11-03T04:55:25.966Z,2.53
2018-11-03T04:56:26.022Z,2.61
2018-11-03T04:57:25.912Z,2.70
2018-11-03T04:58:26.183Z,2.53
2018-11-03T04:59:25.891Z,2.56
2018-11-03T05:00:25.881Z,2.56
2018-11-03T05:01:25.872Z,2.58
2018-11-03T05:02:25.957Z,2.61
2018-11-03T05:03:25.850Z,2.58
2018-11-03T05:04:25.839Z,2.63
2018-11-03T05:05:26.172Z,2.63
2018-11-03T05:06:25.816Z,2.58
2018-11-03T05:07:25.805Z,2.53
2018-11-03T05:08:25.870Z,2.51
2018-11-03T05:09:25.786Z,2.58
2018-11-03T05:10:25.857Z,2.55
2018-11-03T05:11:25.763Z,2.48
2018-11-03T05:12:26.196Z,2.61
2018-11-03T05:13:25.742Z,2.49
2018-11-03T05:14:25.818Z,2.52
2018-11-03T05:15:25.734Z,2.44
2018-11-03T05:16:25.709Z,2.49
2018-11-03T05:17:25.701Z,2.55
2018-11-03T05:18:25.687Z,2.49
2018-11-03T05:19:26.689Z,2.48
2018-11-03T05:20:25.742Z,2.48
2018-11-03T05:21:25.772Z,2.45
2018-11-03T05:22:25.644Z,2.44
2018-11-03T05:23:25.635Z,2.40
2018-11-03T05:24:25.624Z,2.38
2018-11-03T05:25:25.613Z,2.40
2018-11-03T05:26:25.675Z,2.34
2018-11-03T05:27:25.594Z,2.38
2018-11-03T05:28:25.583Z,2.27
2018-11-03T05:29:25.571Z,2.10
2018-11-03T05:30:25.563Z,1.99
2018-11-03T05:31:26.152Z,2.02
2018-11-03T05:32:25.650Z,1.99
2018-11-03T05:33:25.531Z,1.90
2018-11-03T05:34:25.527Z,1.91
2018-11-03T05:35:25.510Z,1.83
2018-11-03T05:36:25.501Z,1.75
2018-11-03T05:37:25.490Z,1.83
2018-11-03T05:38:25.557Z,1.76
2018-11-03T05:39:25.470Z,1.75
2018-11-03T05:40:25.462Z,1.89
2018-11-03T05:41:25.450Z,1.98
2018-11-03T05:42:25.440Z,2.04
2018-11-03T05:43:25.766Z,2.09
2018-11-03T05:44:25.494Z,2.12
2018-11-03T05:45:25.409Z,2.13
2018-11-03T05:46:25.429Z,2.26
2018-11-03T05:47:25.389Z,2.12
2018-11-03T05:48:25.379Z,2.19
2018-11-03T05:49:25.375Z,2.19
2018-11-03T05:50:26.850Z,2.17
2018-11-03T05:51:25.350Z,2.20
2018-11-03T05:52:25.339Z,2.10
2018-11-03T05:53:25.342Z,2.06
2018-11-03T05:54:25.326Z,2.04
2018-11-03T05:55:25.309Z,2.02
2018-11-03T05:56:25.373Z,2.06
2018-11-03T05:57:25.602Z,2.02
2018-11-03T05:58:25.281Z,2.08
2018-11-03T05:59:25.272Z,2.02
2018-11-03T06:00:25.260Z,1.83
2018-11-03T06:01:25.250Z,1.83
2018-11-03T06:02:25.313Z,1.73
2018-11-03T06:03:25.230Z,1.75
2018-11-03T06:04:25.217Z,1.76
2018-11-03T06:05:25.209Z,1.83
2018-11-03T06:06:25.196Z,1.85
2018-11-03T06:07:25.187Z,1.79
2018-11-03T06:08:25.535Z,1.87
2018-11-03T06:09:25.168Z,1.87
2018-11-03T06:10:25.157Z,1.97
2018-11-03T06:11:25.145Z,1.98
2018-11-03T06:12:25.149Z,1.94
2018-11-03T06:13:25.125Z,2.06
2018-11-03T06:14:25.962Z,1.97
2018-11-03T06:15:25.181Z,1.98
2018-11-03T06:16:25.397Z,1.99
2018-11-03T06:17:25.086Z,2.04
2018-11-03T06:18:25.078Z,1.98
2018-11-03T06:19:25.718Z,1.87
2018-11-03T06:20:25.097Z,1.99
2018-11-03T06:21:25.044Z,1.98
2018-11-03T06:22:25.071Z,1.97
2018-11-03T06:23:26.134Z,2.04
2018-11-03T06:24:25.014Z,2.02
2018-11-03T06:25:25.001Z,2.04
2018-11-03T06:26:25.056Z,2.01
2018-11-03T06:27:24.981Z,2.17
2018-11-03T06:28:24.970Z,2.08
2018-11-03T06:29:24.958Z,2.17
2018-11-03T06:30:25.434Z,2.13
2018-11-03T06:31:24.939Z,2.17
2018-11-03T06:32:24.975Z,2.17
2018-11-03T06:33:24.918Z,2.20
2018-11-03T06:34:24.906Z,2.23
2018-11-03T06:35:25.751Z,2.28
2018-11-03T06:36:25.219Z,2.35
2018-11-03T06:37:24.875Z,2.28
2018-11-03T06:38:24.908Z,2.35
2018-11-03T06:39:24.877Z,2.30
2018-11-03T06:40:24.843Z,2.19
2018-11-03T06:41:24.834Z,2.17
2018-11-03T06:42:24.822Z,2.10
2018-11-03T06:43:24.812Z,2.09
2018-11-03T06:44:24.874Z,2.08
2018-11-03T06:45:24.792Z,2.12
2018-11-03T06:46:24.783Z,2.22
2018-11-03T06:47:24.833Z,2.20
2018-11-03T06:48:25.221Z,2.16
2018-11-03T06:49:24.750Z,2.08
2018-11-03T06:50:27.132Z,2.23
2018-11-03T06:51:24.729Z,2.17
2018-11-03T06:52:24.813Z,2.27
2018-11-03T06:53:24.708Z,2.28
2018-11-03T06:54:24.697Z,2.22
2018-11-03T06:55:24.684Z,2.30
2018-11-03T06:56:24.818Z,2.23
2018-11-03T06:57:24.697Z,2.35
2018-11-03T06:58:24.654Z,2.31
2018-11-03T06:59:24.644Z,2.30
2018-11-03T07:00:25.673Z,2.31
2018-11-03T07:01:24.826Z,2.37
2018-11-03T07:02:24.843Z,2.26
2018-11-03T07:03:24.602Z,2.30
2018-11-03T07:04:24.590Z,2.27
2018-11-03T07:05:24.580Z,2.27
2018-11-03T07:06:24.569Z,2.23
2018-11-03T07:07:24.987Z,2.23
2018-11-03T07:08:24.685Z,2.30
2018-11-03T07:09:24.539Z,2.27
2018-11-03T07:10:24.588Z,2.27
2018-11-03T07:11:24.534Z,2.38
2018-11-03T07:12:24.726Z,2.35
2018-11-03T07:13:24.632Z,2.48
2018-11-03T07:14:25.063Z,2.49
2018-11-03T07:15:24.561Z,2.51
2018-11-03T07:16:24.473Z,2.53
2018-11-03T07:17:24.557Z,2.53
2018-11-03T07:18:24.448Z,2.70
2018-11-03T07:19:24.435Z,2.58
2018-11-03T07:20:24.587Z,2.67
2018-11-03T07:21:24.425Z,2.70
2018-11-03T07:22:24.422Z,2.51
2018-11-03T07:23:24.404Z,2.73
2018-11-03T07:24:24.402Z,2.67
2018-11-03T07:25:24.376Z,2.66
2018-11-03T07:26:24.584Z,2.77
2018-11-03T07:27:24.811Z,2.67
2018-11-03T07:28:24.343Z,2.64
2018-11-03T07:29:24.341Z,2.67
2018-11-03T07:30:24.324Z,2.55
2018-11-03T07:31:24.311Z,2.55
2018-11-03T07:32:24.529Z,2.53
2018-11-03T07:33:24.292Z,2.52
2018-11-03T07:34:24.280Z,2.53
2018-11-03T07:35:24.273Z,2.53
2018-11-03T07:36:25.203Z,2.48
2018-11-03T07:37:24.250Z,2.48
2018-11-03T07:38:24.502Z,2.49
2018-11-03T07:39:24.229Z,2.58
2018-11-03T07:40:24.620Z,2.55
2018-11-03T07:41:24.263Z,2.67
2018-11-03T07:42:24.249Z,2.77
2018-11-03T07:43:24.197Z,2.81
2018-11-03T07:44:24.440Z,2.81
2018-11-03T07:45:24.167Z,2.92
2018-11-03T07:46:24.606Z,3.07
2018-11-03T07:47:24.376Z,3.15
2018-11-03T07:48:24.306Z,3.24
2018-11-03T07:49:24.353Z,3.33
2018-11-03T07:50:25.151Z,3.31
2018-11-03T07:51:24.141Z,3.44
2018-11-03T07:52:24.799Z,3.46
2018-11-03T07:53:24.090Z,3.61
2018-11-03T07:54:24.762Z,3.64
2018-11-03T07:55:24.700Z,3.57
2018-11-03T07:56:24.584Z,3.65
2018-11-03T07:57:24.208Z,3.75
2018-11-03T07:58:24.033Z,3.72
2018-11-03T07:59:24.022Z,3.75
2018-11-03T08:00:24.755Z,3.68
2018-11-03T08:01:24.003Z,3.79
2018-11-03T08:02:24.419Z,3.76
2018-11-03T08:03:23.983Z,3.79
2018-11-03T08:04:25.185Z,3.68
2018-11-03T08:05:23.962Z,3.78
2018-11-03T08:06:24.696Z,3.79
2018-11-03T08:07:24.090Z,3.72
2018-11-03T08:08:24.053Z,3.70
2018-11-03T08:09:23.943Z,3.76
2018-11-03T08:10:24.699Z,3.79
2018-11-03T08:11:24.388Z,3.83
2018-11-03T08:12:24.722Z,3.75
2018-11-03T08:13:24.656Z,3.78
2018-11-03T08:14:23.999Z,3.71
2018-11-03T08:15:23.859Z,3.90
2018-11-03T08:16:23.937Z,3.94
2018-11-03T08:17:24.656Z,4.03
2018-11-03T08:18:24.206Z,4.14
2018-11-03T08:19:23.816Z,4.19
2018-11-03T08:20:24.693Z,4.33
2018-11-03T08:21:23.795Z,4.29
2018-11-03T08:22:23.787Z,4.33
2018-11-03T08:23:23.810Z,4.34
2018-11-03T08:24:24.653Z,4.55
2018-11-03T08:25:23.786Z,4.55
2018-11-03T08:26:23.866Z,4.47
2018-11-03T08:27:23.737Z,4.58
2018-11-03T08:28:23.722Z,4.51
2018-11-03T08:29:23.723Z,4.52
2018-11-03T08:30:23.821Z,4.62
2018-11-03T08:31:24.655Z,4.58
2018-11-03T08:32:24.697Z,4.70
2018-11-03T08:33:23.671Z,4.73
2018-11-03T08:34:23.685Z,4.86
2018-11-03T08:35:23.655Z,4.92
2018-11-03T08:36:23.639Z,4.99
2018-11-03T08:37:23.630Z,4.95
2018-11-03T08:38:24.780Z,4.98
2018-11-03T08:39:23.697Z,4.92
2018-11-03T08:40:23.599Z,5.02
2018-11-03T08:41:23.588Z,5.16
2018-11-03T08:42:24.065Z,5.32
2018-11-03T08:43:23.668Z,5.38
2018-11-03T08:44:24.653Z,5.45
2018-11-03T08:45:23.969Z,5.66
2018-11-03T08:46:23.691Z,5.56
2018-11-03T08:47:23.659Z,5.63
2018-11-03T08:48:23.913Z,5.66
2018-11-03T08:49:23.512Z,5.64
2018-11-03T08:50:23.634Z,5.63
2018-11-03T08:51:24.148Z,5.55
2018-11-03T08:52:24.016Z,5.74
2018-11-03T08:53:23.643Z,5.81
2018-11-03T08:54:23.474Z,5.81
2018-11-03T08:55:23.444Z,5.88
2018-11-03T08:56:27.996Z,5.86
2018-11-03T08:59:20.598Z,6.18
2018-11-03T09:00:21.278Z,6.13
2018-11-03T09:01:20.472Z,6.18
2018-11-03T09:02:21.733Z,6.21
2018-11-03T09:03:20.507Z,6.21
2018-11-03T09:04:20.848Z,6.00
2018-11-03T09:05:20.438Z,6.13
2018-11-03T09:06:20.479Z,6.22
2018-11-03T09:07:20.424Z,6.30
2018-11-03T09:08:20.878Z,6.38
2018-11-03T09:09:20.444Z,6.43
2018-11-03T09:10:20.376Z,6.53
2018-11-03T09:11:20.786Z,6.50
2018-11-03T09:12:20.355Z,6.43
2018-11-03T09:13:20.591Z,6.43
2018-11-03T09:14:20.820Z,6.46
2018-11-03T09:15:20.699Z,6.46
2018-11-03T09:16:21.270Z,6.69
2018-11-03T09:17:20.327Z,6.72
2018-11-03T09:18:20.793Z,6.76
2018-11-03T09:19:20.437Z,6.65
2018-11-03T09:20:20.723Z,6.72
2018-11-03T09:21:20.443Z,6.69
2018-11-03T09:22:20.398Z,6.73
2018-11-03T09:23:20.402Z,6.76
2018-11-03T09:24:20.349Z,6.97
2018-11-03T09:25:21.096Z,6.94
2018-11-03T09:26:21.591Z,7.01
2018-11-03T09:27:20.408Z,7.08
2018-11-03T09:28:20.356Z,7.08
2018-11-03T09:29:20.298Z,7.09
2018-11-03T09:30:20.180Z,7.17
2018-11-03T09:31:20.768Z,7.19
2018-11-03T09:32:20.560Z,7.29
2018-11-03T09:33:20.408Z,7.35
2018-11-03T09:34:20.645Z,7.35
2018-11-03T09:35:20.115Z,7.45
2018-11-03T09:36:20.292Z,7.49
2018-11-03T09:37:20.278Z,7.74
2018-11-03T09:38:20.312Z,7.79
2018-11-03T09:39:20.717Z,7.84
2018-11-03T09:40:20.114Z,7.93
2018-11-03T09:41:20.112Z,7.94
2018-11-03T09:42:20.213Z,7.84
2018-11-03T09:43:20.760Z,7.84
2018-11-03T09:44:20.800Z,7.92
2018-11-03T09:45:20.178Z,7.96
2018-11-03T09:46:20.673Z,7.84
2018-11-03T09:47:37.988Z,7.92
2018-11-03T09:48:20.296Z,8.04
2018-11-03T09:49:20.783Z,8.10
2018-11-03T09:50:20.359Z,8.18
2018-11-03T09:51:21.144Z,8.29
2018-11-03T09:52:20.856Z,8.42
2018-11-03T09:53:20.667Z,8.42
2018-11-03T09:54:20.672Z,8.55
2018-11-03T09:55:19.928Z,8.63
2018-11-03T09:56:20.787Z,8.62
2018-11-03T09:57:20.625Z,8.55
2018-11-03T09:58:19.974Z,8.50
2018-11-03T09:59:20.625Z,8.51
2018-11-03T10:00:19.844Z,8.51
2018-11-03T10:01:19.838Z,8.63
2018-11-03T10:02:19.964Z,8.66
2018-11-03T10:03:19.814Z,8.63
2018-11-03T10:04:19.882Z,8.57
2018-11-03T10:05:19.884Z,8.60
2018-11-03T10:06:19.810Z,8.68
2018-11-03T10:07:19.809Z,8.78
2018-11-03T10:08:20.302Z,8.63
2018-11-03T10:09:19.761Z,8.66
2018-11-03T10:10:19.760Z,8.72
2018-11-03T10:11:19.727Z,8.79
2018-11-03T10:12:19.780Z,8.81
2018-11-03T10:13:19.743Z,8.86
2018-11-03T10:14:20.158Z,8.96
2018-11-03T10:15:20.069Z,9.01
2018-11-03T10:16:19.675Z,9.02
2018-11-03T10:17:19.666Z,8.99
2018-11-03T10:18:19.682Z,8.93
2018-11-03T10:19:19.667Z,9.12
2018-11-03T10:20:20.229Z,9.20
2018-11-03T10:21:19.641Z,9.32
2018-11-03T10:22:20.279Z,9.31
2018-11-03T10:23:19.593Z,9.45
2018-11-03T10:24:19.606Z,9.39
2018-11-03T10:25:19.613Z,9.48
2018-11-03T10:26:19.724Z,9.30
2018-11-03T10:27:19.553Z,9.31
2018-11-03T10:28:19.543Z,9.27
2018-11-03T10:29:19.896Z,9.42
2018-11-03T10:30:19.562Z,9.43
2018-11-03T10:31:19.516Z,9.40
2018-11-03T10:32:19.786Z,9.45
2018-11-03T10:33:19.488Z,9.46
2018-11-03T10:34:19.480Z,9.45
2018-11-03T10:35:19.609Z,9.42
2018-11-03T10:36:19.462Z,9.40
2018-11-03T10:37:19.446Z,9.31
2018-11-03T10:38:20.131Z,9.27
2018-11-03T10:39:19.451Z,9.30
2018-11-03T10:40:20.123Z,9.45
2018-11-03T10:41:19.455Z,9.46
2018-11-03T10:42:19.820Z,9.50
2018-11-03T10:43:19.516Z,9.42
2018-11-03T10:44:19.497Z,9.31
2018-11-03T10:45:19.365Z,9.35
2018-11-03T10:46:19.456Z,9.38
2018-11-03T10:47:20.382Z,9.40
2018-11-03T10:48:19.358Z,9.48
2018-11-03T10:49:19.338Z,9.63
2018-11-03T10:50:19.475Z,9.68
2018-11-03T10:51:19.297Z,9.82
2018-11-03T10:52:19.294Z,9.88
2018-11-03T10:53:19.377Z,9.91
2018-11-03T10:54:19.594Z,10.00
2018-11-03T10:55:19.255Z,9.96
2018-11-03T10:56:20.659Z,9.93
2018-11-03T10:57:19.236Z,10.00
2018-11-03T10:58:19.235Z,10.21
2018-11-03T10:59:19.220Z,10.12
2018-11-03T11:00:19.263Z,10.09
2018-11-03T11:01:19.203Z,9.86
2018-11-03T11:02:19.271Z,9.86
2018-11-03T11:03:19.196Z,9.94
2018-11-03T11:04:19.157Z,10.03
2018-11-03T11:05:19.167Z,10.12
2018-11-03T11:06:19.197Z,10.17
2018-11-03T11:07:19.657Z,10.07
2018-11-03T11:08:21.769Z,9.86
2018-11-03T11:09:19.656Z,9.81
2018-11-03T11:10:19.150Z,9.85
2018-11-03T11:11:19.109Z,9.81
2018-11-03T11:12:19.073Z,9.89
2018-11-03T11:13:19.699Z,10.12
2018-11-03T11:14:20.245Z,10.22
2018-11-03T11:15:19.051Z,10.43
2018-11-03T11:16:19.082Z,10.40
2018-11-03T11:17:19.021Z,10.32
2018-11-03T11:18:19.014Z,10.32
2018-11-03T11:19:19.947Z,10.40
2018-11-03T11:20:20.248Z,10.47
2018-11-03T11:21:19.849Z,10.36
2018-11-03T11:22:19.762Z,10.51
2018-11-03T11:23:19.257Z,10.55
2018-11-03T11:24:19.313Z,10.52
2018-11-03T11:25:19.108Z,10.66
2018-11-03T11:26:19.929Z,10.83
2018-11-03T11:27:20.617Z,10.94
2018-11-03T11:28:18.918Z,11.17
2018-11-03T11:29:19.272Z,11.94
2018-11-03T11:30:18.887Z,12.02
2018-11-03T11:31:19.011Z,12.33
2018-11-03T11:32:19.363Z,12.52
2018-11-03T11:33:18.847Z,12.78
2018-11-03T11:34:19.610Z,12.92
2018-11-03T11:35:18.879Z,13.18
2018-11-03T11:36:19.104Z,13.98
2018-11-03T11:37:19.100Z,14.88
2018-11-03T11:38:19.524Z,15.36
2018-11-03T11:39:19.028Z,15.05
2018-11-03T11:40:20.745Z,15.06
2018-11-03T11:41:19.939Z,15.59
2018-11-03T11:42:18.904Z,16.88
2018-11-03T11:43:18.890Z,17.76
2018-11-03T11:44:19.686Z,17.92
2018-11-03T11:45:19.692Z,17.66
2018-11-03T11:46:18.757Z,17.47
2018-11-03T11:47:18.788Z,17.13
2018-11-03T11:48:18.825Z,18.22
2018-11-03T11:49:18.675Z,18.58
2018-11-03T11:50:18.917Z,18.95
2018-11-03T11:51:18.657Z,18.40
2018-11-03T11:52:18.649Z,18.07
2018-11-03T11:53:18.634Z,19.15
2018-11-03T11:54:18.636Z,20.35
2018-11-03T11:55:18.615Z,20.86
2018-11-03T11:56:18.822Z,20.83
2018-11-03T11:57:18.593Z,21.34
2018-11-03T11:58:18.628Z,22.13
2018-11-03T11:59:18.583Z,22.29
2018-11-03T12:00:18.561Z,23.24
2018-11-03T12:01:18.557Z,23.65
2018-11-03T12:02:18.784Z,23.27
2018-11-03T12:03:18.535Z,22.69
2018-11-03T12:04:18.521Z,19.68
2018-11-03T12:05:19.004Z,19.17
2018-11-03T12:06:18.510Z,20.06
2018-11-03T12:07:22.133Z,20.12
2018-11-03T12:08:27.178Z,21.16
2018-11-03T12:09:18.463Z,20.66
2018-11-03T12:10:18.617Z,19.93
2018-11-03T12:11:19.137Z,20.35
2018-11-03T12:12:18.447Z,20.46
2018-11-03T12:13:19.139Z,18.98
2018-11-03T12:14:18.539Z,18.33
2018-11-03T12:15:18.426Z,18.17
2018-11-03T12:16:18.634Z,17.57
2018-11-03T12:17:19.770Z,17.22
2018-11-03T12:18:19.182Z,16.86
2018-11-03T12:19:18.360Z,17.08
2018-11-03T12:20:18.482Z,17.06
2018-11-03T12:21:18.350Z,17.78
2018-11-03T12:22:20.180Z,18.21
2018-11-03T12:23:18.326Z,15.84
2018-11-03T12:24:18.327Z,14.28
2018-11-03T12:25:18.313Z,13.25
2018-11-03T12:26:18.443Z,12.37
2018-11-03T12:27:18.325Z,12.11
2018-11-03T12:28:18.307Z,12.04
2018-11-03T12:29:18.326Z,12.04
2018-11-03T12:30:19.163Z,11.94
2018-11-03T12:31:18.239Z,11.74
2018-11-03T12:32:18.407Z,11.62
2018-11-03T12:33:18.215Z,11.52
2018-11-03T12:34:18.206Z,11.39
2018-11-03T12:35:18.193Z,11.16
2018-11-03T12:36:18.715Z,11.06
2018-11-03T12:37:18.397Z,11.03
2018-11-03T12:38:18.375Z,11.14
2018-11-03T12:39:18.318Z,11.19
2018-11-03T12:40:18.213Z,11.03
2018-11-03T12:41:18.189Z,10.96
2018-11-03T12:42:18.243Z,11.01
2018-11-03T12:43:18.559Z,11.06
2018-11-03T12:44:19.410Z,11.01
2018-11-03T12:45:18.744Z,11.03
2018-11-03T12:46:18.185Z,11.13
2018-11-03T12:47:18.086Z,11.03
2018-11-03T12:48:18.214Z,10.91
2018-11-03T12:49:18.149Z,10.65
2018-11-03T12:50:18.620Z,10.51
2018-11-03T12:51:18.657Z,10.52
2018-11-03T12:52:18.051Z,10.51
2018-11-03T12:53:17.995Z,10.60
2018-11-03T12:54:18.656Z,10.60
2018-11-03T12:55:18.666Z,10.56
2018-11-03T12:56:18.097Z,10.53
2018-11-03T12:57:18.030Z,10.30
2018-11-03T12:58:18.661Z,10.44
2018-11-03T12:59:18.024Z,10.42
2018-11-03T13:00:18.692Z,10.47
2018-11-03T13:01:17.955Z,10.33
2018-11-03T13:02:18.062Z,10.22
2018-11-03T13:03:17.998Z,10.30
2018-11-03T13:04:18.628Z,10.30
2018-11-03T13:05:18.029Z,10.19
2018-11-03T13:06:17.879Z,10.10
2018-11-03T13:07:17.910Z,10.06
2018-11-03T13:08:18.004Z,9.99
2018-11-03T13:09:18.201Z,10.14
2018-11-03T13:10:18.629Z,10.18
2018-11-03T13:11:17.822Z,10.33
2018-11-03T13:12:17.946Z,10.36
2018-11-03T13:13:17.784Z,10.32
2018-11-03T13:14:18.626Z,10.26
2018-11-03T13:15:17.776Z,10.25
2018-11-03T13:16:17.752Z,10.09
2018-11-03T13:17:17.741Z,10.03